createdAt,value
2023-02-09T00:01:19.748Z,103138.47
2023-02-09T00:03:47.585Z,103125.78
2023-02-09T00:06:20.681Z,103127.69
2023-02-09T00:08:48.079Z,103127.63
2023-02-09T00:11:46.865Z,103117.56
2023-02-09T00:14:15.691Z,103121.75
2023-02-09T00:16:43.044Z,103127.31
2023-02-09T00:19:11.205Z,103113.28
2023-02-09T00:21:39.485Z,103109.56
2023-02-09T00:24:07.305Z,103116.81
2023-02-09T00:26:34.555Z,103118.59
2023-02-09T00:29:01.378Z,103115.91
2023-02-09T00:31:28.782Z,103109.22
2023-02-09T00:33:56.280Z,103105.22
2023-02-09T00:36:23.279Z,103104.78
2023-02-09T00:38:50.211Z,103097.16
2023-02-09T00:41:21.003Z,103093.72
2023-02-09T00:43:47.803Z,103089.63
2023-02-09T00:46:14.682Z,103090.28
2023-02-09T00:48:41.676Z,103092.00
2023-02-09T00:51:08.530Z,103085.97
2023-02-09T00:53:35.402Z,103081.09
2023-02-09T00:56:05.163Z,103095.31
2023-02-09T00:58:32.062Z,103088.50
2023-02-09T01:00:58.839Z,103079.66
2023-02-09T01:03:25.734Z,103087.56
2023-02-09T01:05:53.517Z,103084.13
2023-02-09T01:08:20.397Z,103065.84
2023-02-09T01:10:47.595Z,103069.47
2023-02-09T01:13:17.854Z,103070.06
2023-02-09T01:15:44.697Z,103051.03
2023-02-09T01:18:11.571Z,103055.88
2023-02-09T01:20:41.268Z,103052.91
2023-02-09T01:23:08.494Z,103045.88
2023-02-09T01:25:35.310Z,103042.31
2023-02-09T01:28:02.385Z,103038.44
2023-02-09T01:30:29.514Z,103032.91
2023-02-09T01:32:56.335Z,103028.97
2023-02-09T01:35:23.319Z,103028.22
2023-02-09T01:37:54.817Z,103027.19
2023-02-09T01:40:21.813Z,103024.53
2023-02-09T01:42:48.909Z,103028.22
2023-02-09T01:45:29.870Z,103025.06
2023-02-09T01:48:01.793Z,103023.34
2023-02-09T01:50:35.958Z,103017.16
2023-02-09T01:53:04.356Z,103012.69
2023-02-09T01:55:35.154Z,103012.69
2023-02-09T01:58:09.607Z,103008.09
2023-02-09T02:00:36.868Z,103013.03
2023-02-09T02:03:13.936Z,103006.75
2023-02-09T02:05:44.997Z,102998.09
2023-02-09T02:08:21.285Z,102993.78
2023-02-09T02:10:48.372Z,102988.44
2023-02-09T02:13:15.553Z,102990.19
2023-02-09T02:16:10.975Z,102989.50
2023-02-09T02:18:56.743Z,102984.84
2023-02-09T02:21:38.858Z,102984.06
2023-02-09T02:24:42.766Z,102979.66
2023-02-09T02:27:20.879Z,102974.34
2023-02-09T02:30:20.027Z,102969.00
2023-02-09T02:32:56.417Z,102970.91
2023-02-09T02:35:46.498Z,102966.44
2023-02-09T02:38:25.512Z,102965.38
2023-02-09T02:41:07.365Z,102963.50
2023-02-09T02:43:34.304Z,102966.06
2023-02-09T02:46:05.902Z,102957.75
2023-02-09T02:48:48.312Z,102953.31
2023-02-09T02:51:21.822Z,102953.19
2023-02-09T02:53:57.446Z,102946.91
2023-02-09T02:56:37.119Z,102947.28
2023-02-09T02:59:08.351Z,102946.34
2023-02-09T03:01:47.569Z,102962.34
2023-02-09T03:04:16.384Z,102961.41
2023-02-09T03:06:43.421Z,102952.25
2023-02-09T03:09:13.398Z,102952.06
2023-02-09T03:11:46.900Z,102941.75
2023-02-09T03:14:25.730Z,102952.63
2023-02-09T03:17:07.353Z,102946.44
2023-02-09T03:20:01.058Z,102940.25
2023-02-09T03:22:35.793Z,102937.88
2023-02-09T03:25:24.277Z,102929.00
2023-02-09T03:28:29.427Z,102924.44
2023-02-09T03:30:59.109Z,102915.84
2023-02-09T03:33:29.778Z,102910.31
2023-02-09T03:35:59.430Z,102910.31
2023-02-09T03:38:27.740Z,102905.84
2023-02-09T03:40:55.631Z,102907.66
2023-02-09T03:43:42.480Z,102903.28
2023-02-09T03:46:10.188Z,102904.22
2023-02-09T03:48:37.258Z,102897.94
2023-02-09T03:51:07.055Z,102891.72
2023-02-09T03:53:36.770Z,102889.75
2023-02-09T03:56:05.082Z,102885.56
2023-02-09T03:58:32.179Z,102880.88
2023-02-09T04:01:05.548Z,102878.03
2023-02-09T04:03:32.841Z,102878.50
2023-02-09T04:06:00.120Z,102872.97
2023-02-09T04:08:27.563Z,102869.25
2023-02-09T04:10:54.531Z,102870.00
2023-02-09T04:13:21.447Z,102864.19
2023-02-09T04:15:48.401Z,102860.56
2023-02-09T04:18:15.207Z,102847.59
2023-02-09T04:20:45.311Z,102844.19
2023-02-09T04:23:13.182Z,102851.03
2023-02-09T04:25:39.989Z,102847.22
2023-02-09T04:28:06.929Z,102837.38
2023-02-09T04:30:33.871Z,102838.25
2023-02-09T04:33:00.764Z,102841.66
2023-02-09T04:35:27.605Z,102845.22
2023-02-09T04:37:54.602Z,102849.50
2023-02-09T04:40:21.574Z,102852.91
2023-02-09T04:42:48.510Z,102842.59
2023-02-09T04:45:15.519Z,102847.06
2023-02-09T04:47:42.534Z,102828.47
2023-02-09T04:50:09.823Z,102824.88
2023-02-09T04:52:36.817Z,102814.19
2023-02-09T04:55:04.050Z,102808.44
2023-02-09T04:57:49.450Z,102799.16
2023-02-09T05:00:16.684Z,102792.75
2023-02-09T05:02:43.759Z,102791.59
2023-02-09T05:05:10.763Z,102797.06
2023-02-09T05:07:37.767Z,102801.34
2023-02-09T05:10:05.160Z,102799.63
2023-02-09T05:12:32.180Z,102803.34
2023-02-09T05:14:58.996Z,102793.66
2023-02-09T05:17:25.953Z,102800.03
2023-02-09T05:19:53.005Z,102803.34
2023-02-09T05:22:20.006Z,102801.72
2023-02-09T05:24:46.797Z,102803.66
2023-02-09T05:27:13.820Z,102815.84
2023-02-09T05:29:40.682Z,102815.09
2023-02-09T05:32:07.728Z,102829.41
2023-02-09T05:34:40.011Z,102824.94
2023-02-09T05:37:07.053Z,102821.47
2023-02-09T05:39:33.969Z,102831.59
2023-02-09T05:42:16.130Z,102825.53
2023-02-09T05:44:44.575Z,102846.00
2023-02-09T05:47:12.341Z,102853.28
2023-02-09T05:49:39.352Z,102857.84
2023-02-09T05:52:07.424Z,102861.41
2023-02-09T05:54:34.945Z,102852.41
2023-02-09T05:57:02.196Z,102855.28
2023-02-09T05:59:29.193Z,102857.28
2023-02-09T06:01:56.226Z,102850.16
2023-02-09T06:04:24.184Z,102855.56
2023-02-09T06:06:51.200Z,102861.41
2023-02-09T06:09:21.148Z,102851.50
2023-02-09T06:11:48.548Z,102848.94
2023-02-09T06:14:16.088Z,102845.22
2023-02-09T06:16:42.958Z,102856.00
2023-02-09T06:19:17.962Z,102850.44
2023-02-09T06:21:45.562Z,102852.06
2023-02-09T06:24:13.464Z,102852.63
2023-02-09T06:26:41.490Z,102842.59
2023-02-09T06:29:09.615Z,102850.22
2023-02-09T06:31:37.001Z,102843.06
2023-02-09T06:34:05.910Z,102849.25
2023-02-09T06:36:33.253Z,102852.69
2023-02-09T06:39:01.093Z,102847.91
2023-02-09T06:41:28.150Z,102844.06
2023-02-09T06:43:54.997Z,102844.84
2023-02-09T06:46:22.010Z,102848.06
2023-02-09T06:48:49.456Z,102841.66
2023-02-09T06:51:17.835Z,102830.09
2023-02-09T06:53:45.055Z,102831.72
2023-02-09T06:56:13.202Z,102839.84
2023-02-09T06:58:42.862Z,102822.47
2023-02-09T07:01:12.363Z,102822.63
2023-02-09T07:03:39.828Z,102825.88
2023-02-09T07:06:09.548Z,102828.47
2023-02-09T07:08:37.062Z,102831.88
2023-02-09T07:11:10.247Z,102832.53
2023-02-09T07:13:37.784Z,102836.59
2023-02-09T07:16:07.005Z,102835.84
2023-02-09T07:18:34.104Z,102833.72
2023-02-09T07:21:04.178Z,102830.00
2023-02-09T07:23:31.198Z,102836.00
2023-02-09T07:26:10.498Z,102843.03
2023-02-09T07:28:38.078Z,102843.91
2023-02-09T07:31:08.831Z,102846.91
2023-02-09T07:33:37.515Z,102866.78
2023-02-09T07:36:11.872Z,102859.53
2023-02-09T07:38:39.544Z,102852.72
2023-02-09T07:41:08.209Z,102853.91
2023-02-09T07:43:35.443Z,102855.50
2023-02-09T07:46:05.054Z,102862.59
2023-02-09T07:48:32.340Z,102849.56
2023-02-09T07:50:59.871Z,102848.50
2023-02-09T07:53:27.390Z,102852.66
2023-02-09T07:55:54.699Z,102846.44
2023-02-09T07:58:22.170Z,102853.91
2023-02-09T08:00:50.377Z,102854.34
2023-02-09T08:03:21.248Z,102855.06
2023-02-09T08:06:00.901Z,102858.06
2023-02-09T08:08:27.848Z,102865.84
2023-02-09T08:11:00.584Z,102862.94
2023-02-09T08:13:30.572Z,102858.47
2023-02-09T08:16:03.207Z,102876.22
2023-02-09T08:18:36.420Z,102861.63
2023-02-09T08:21:06.808Z,102860.19
2023-02-09T08:23:35.434Z,102869.09
2023-02-09T08:26:08.015Z,102871.22
2023-02-09T08:28:43.626Z,102864.94
2023-02-09T08:31:12.377Z,102849.88
2023-02-09T08:33:39.497Z,102863.81
2023-02-09T08:36:08.693Z,102852.47
2023-02-09T08:38:36.298Z,102868.56
2023-02-09T08:41:04.789Z,102871.66
2023-02-09T08:43:32.468Z,102861.19
2023-02-09T08:46:05.624Z,102846.44
2023-02-09T08:48:37.747Z,102850.06
2023-02-09T08:51:06.535Z,102849.34
2023-02-09T08:53:33.780Z,102865.09
2023-02-09T08:56:00.950Z,102865.22
2023-02-09T08:58:28.623Z,102860.34
2023-02-09T09:01:03.256Z,102856.03
2023-02-09T09:03:31.919Z,102851.41
2023-02-09T09:06:07.650Z,102823.78
2023-02-09T09:08:37.311Z,102825.84
2023-02-09T09:11:06.633Z,102823.63
2023-02-09T09:13:34.002Z,102820.66
2023-02-09T09:16:01.308Z,102811.13
2023-02-09T09:18:29.034Z,102804.09
2023-02-09T09:20:56.553Z,102807.44
2023-02-09T09:23:23.386Z,102820.63
2023-02-09T09:25:50.227Z,102820.75
2023-02-09T09:28:17.705Z,102826.38
2023-02-09T09:30:44.713Z,102835.81
2023-02-09T09:33:11.857Z,102830.78
2023-02-09T09:35:39.092Z,102835.66
2023-02-09T09:38:06.051Z,102824.59
2023-02-09T09:40:37.470Z,102806.09
2023-02-09T09:43:35.396Z,102802.38
2023-02-09T09:46:04.278Z,102805.59
2023-02-09T09:48:56.612Z,102779.38
2023-02-09T09:51:42.085Z,102779.13
2023-02-09T09:54:20.632Z,102773.00
2023-02-09T09:56:48.484Z,102773.66
2023-02-09T09:59:19.546Z,102796.97
2023-02-09T10:01:48.091Z,102793.50
2023-02-09T10:04:16.354Z,102784.75
2023-02-09T10:06:45.677Z,102772.91
2023-02-09T10:09:28.816Z,102789.53
2023-02-09T10:12:07.799Z,102801.69
2023-02-09T10:14:34.736Z,102801.59
2023-02-09T10:17:01.630Z,102816.22
2023-02-09T10:19:29.493Z,102811.88
2023-02-09T10:21:56.569Z,102820.50
2023-02-09T10:24:26.270Z,102825.13
2023-02-09T10:27:15.163Z,102827.69
2023-02-09T10:29:45.505Z,102829.41
2023-02-09T10:32:17.076Z,102822.03
2023-02-09T10:34:48.529Z,102823.72
2023-02-09T10:37:24.385Z,102811.22
2023-02-09T10:40:15.990Z,102814.94
2023-02-09T10:43:07.381Z,102819.75
2023-02-09T10:45:43.015Z,102826.97
2023-02-09T10:48:13.057Z,102836.53
2023-02-09T10:50:50.180Z,102840.63
2023-02-09T10:53:24.426Z,102840.66
2023-02-09T10:55:58.540Z,102844.47
2023-02-09T10:58:32.958Z,102832.84
2023-02-09T11:01:09.407Z,102815.63
2023-02-09T11:03:38.191Z,102834.81
2023-02-09T11:06:16.290Z,102831.84
2023-02-09T11:08:45.834Z,102839.91
2023-02-09T11:11:30.228Z,102831.13
2023-02-09T11:13:58.116Z,102835.66
2023-02-09T11:16:41.764Z,102826.84
2023-02-09T11:19:22.895Z,102822.44
2023-02-09T11:22:05.248Z,102827.44
2023-02-09T11:25:10.246Z,102826.31
2023-02-09T11:27:55.457Z,102831.97
2023-02-09T11:30:53.706Z,102830.13
2023-02-09T11:33:59.587Z,102827.41
2023-02-09T11:36:55.747Z,102843.03
2023-02-09T11:39:34.669Z,102833.63
2023-02-09T11:42:29.979Z,102836.03
2023-02-09T11:45:02.946Z,102833.28
2023-02-09T11:47:42.690Z,102817.72
2023-02-09T11:50:20.578Z,102826.94
2023-02-09T11:52:57.948Z,102821.53
2023-02-09T11:55:39.651Z,102825.66
2023-02-09T11:58:21.619Z,102824.34
2023-02-09T12:01:10.043Z,102821.66
2023-02-09T12:03:46.615Z,102812.81
2023-02-09T12:06:17.383Z,102810.56
2023-02-09T12:09:05.197Z,102800.34
2023-02-09T12:11:56.726Z,102808.03
2023-02-09T12:14:44.414Z,102805.47
2023-02-09T12:17:18.690Z,102810.41
2023-02-09T12:19:56.420Z,102812.13
2023-02-09T12:22:35.609Z,102808.03
2023-02-09T12:25:20.099Z,102812.31
2023-02-09T12:28:08.960Z,102814.78
2023-02-09T12:30:46.581Z,102814.22
2023-02-09T12:33:24.060Z,102812.94
2023-02-09T12:36:04.919Z,102795.47
2023-02-09T12:38:54.496Z,102792.75
2023-02-09T12:41:28.332Z,102777.59
2023-02-09T12:44:10.290Z,102782.56
2023-02-09T12:46:51.617Z,102783.41
2023-02-09T12:49:27.715Z,102781.13
2023-02-09T12:52:14.527Z,102786.66
2023-02-09T12:54:55.739Z,102788.66
2023-02-09T12:57:22.678Z,102782.38
2023-02-09T12:59:52.819Z,102766.78
2023-02-09T13:02:24.459Z,102768.75
2023-02-09T13:04:59.537Z,102765.78
2023-02-09T13:08:06.028Z,102769.50
2023-02-09T13:10:44.454Z,102766.06
2023-02-09T13:13:11.372Z,102760.53
2023-02-09T13:16:07.022Z,102761.28
2023-02-09T13:19:11.160Z,102762.09
2023-02-09T13:21:38.188Z,102752.00
2023-02-09T13:24:18.616Z,102726.31
2023-02-09T13:26:54.314Z,102729.31
2023-02-09T13:29:24.002Z,102719.94
2023-02-09T13:32:17.003Z,102726.88
2023-02-09T13:35:01.848Z,102723.34
2023-02-09T13:37:34.576Z,102726.31
2023-02-09T13:40:13.075Z,102737.69
2023-02-09T13:42:56.575Z,102747.19
2023-02-09T13:45:24.917Z,102753.03
2023-02-09T13:47:51.837Z,102747.91
2023-02-09T13:50:22.462Z,102753.88
2023-02-09T13:52:52.720Z,102761.25
2023-02-09T13:55:27.416Z,102756.72
2023-02-09T13:58:05.655Z,102755.56
2023-02-09T14:00:41.840Z,102745.94
2023-02-09T14:03:16.912Z,102754.44
2023-02-09T14:05:47.293Z,102760.13
2023-02-09T14:08:16.895Z,102755.16
2023-02-09T14:10:53.292Z,102747.63
2023-02-09T14:13:35.248Z,102750.47
2023-02-09T14:16:07.043Z,102763.53
2023-02-09T14:18:50.463Z,102757.41
2023-02-09T14:21:43.748Z,102757.56
2023-02-09T14:24:15.442Z,102763.53
2023-02-09T14:26:49.444Z,102763.22
2023-02-09T14:29:28.574Z,102770.34
2023-02-09T14:32:37.760Z,102781.69
2023-02-09T14:35:26.224Z,102772.63
2023-02-09T14:37:56.571Z,102775.16
2023-02-09T14:40:31.091Z,102781.28
2023-02-09T14:43:20.198Z,102782.66
2023-02-09T14:45:57.381Z,102784.81
2023-02-09T14:48:26.740Z,102791.47
2023-02-09T14:50:58.565Z,102790.47
2023-02-09T14:53:29.889Z,102783.47
2023-02-09T14:55:57.943Z,102783.22
2023-02-09T14:58:26.050Z,102794.00
2023-02-09T15:00:55.198Z,102783.06
2023-02-09T15:03:22.178Z,102776.41
2023-02-09T15:05:51.754Z,102774.25
2023-02-09T15:08:23.821Z,102788.44
2023-02-09T15:10:54.359Z,102770.97
2023-02-09T15:13:23.581Z,102770.13
2023-02-09T15:15:50.649Z,102770.00
2023-02-09T15:18:20.824Z,102775.97
2023-02-09T15:20:47.903Z,102777.25
2023-02-09T15:23:15.323Z,102770.41
2023-02-09T15:25:42.618Z,102767.13
2023-02-09T15:28:33.346Z,102766.84
2023-02-09T15:31:01.491Z,102779.66
2023-02-09T15:33:29.559Z,102784.75
2023-02-09T15:35:59.218Z,102787.00
2023-02-09T15:38:27.913Z,102777.34
2023-02-09T15:41:27.072Z,102789.94
2023-02-09T15:44:12.645Z,102790.22
2023-02-09T15:46:58.120Z,102794.66
2023-02-09T15:49:25.108Z,102799.19
2023-02-09T15:51:52.171Z,102790.69
2023-02-09T15:54:21.935Z,102792.63
2023-02-09T15:56:48.837Z,102790.69
2023-02-09T15:59:23.720Z,102785.69
2023-02-09T16:01:52.116Z,102790.19
2023-02-09T16:04:19.108Z,102789.03
2023-02-09T16:06:52.806Z,102785.75
2023-02-09T16:09:23.683Z,102798.25
2023-02-09T16:11:50.595Z,102789.00
2023-02-09T16:14:21.171Z,102790.78
2023-02-09T16:16:48.523Z,102798.13
2023-02-09T16:19:17.057Z,102793.63
2023-02-09T16:21:50.959Z,102797.69
2023-02-09T16:24:32.778Z,102788.38
2023-02-09T16:27:01.996Z,102788.81
2023-02-09T16:29:29.266Z,102803.06
2023-02-09T16:31:56.295Z,102801.56
2023-02-09T16:34:23.436Z,102803.78
2023-02-09T16:36:50.379Z,102803.50
2023-02-09T16:39:20.325Z,102803.50
2023-02-09T16:41:48.336Z,102811.13
2023-02-09T16:44:24.582Z,102813.44
2023-02-09T16:46:54.519Z,102820.69
2023-02-09T16:49:27.399Z,102821.38
2023-02-09T16:51:57.973Z,102826.06
2023-02-09T16:54:24.840Z,102830.84
2023-02-09T16:56:54.627Z,102836.38
2023-02-09T16:59:21.970Z,102837.22
2023-02-09T17:01:49.203Z,102851.97
2023-02-09T17:04:16.270Z,102853.69
2023-02-09T17:06:47.879Z,102857.81
2023-02-09T17:09:15.866Z,102868.56
2023-02-09T17:11:48.280Z,102873.22
2023-02-09T17:14:15.527Z,102867.81
2023-02-09T17:16:44.885Z,102873.22
2023-02-09T17:19:15.772Z,102863.31
2023-02-09T17:21:42.993Z,102872.97
2023-02-09T17:24:15.586Z,102871.09
2023-02-09T17:26:42.621Z,102881.75
2023-02-09T17:29:12.782Z,102882.84
2023-02-09T17:31:52.909Z,102880.91
2023-02-09T17:34:22.221Z,102892.19
2023-02-09T17:36:49.409Z,102886.81
2023-02-09T17:39:19.100Z,102884.44
2023-02-09T17:41:48.578Z,102896.78
2023-02-09T17:44:43.388Z,102895.06
2023-02-09T17:47:20.778Z,102903.88
2023-02-09T17:49:48.094Z,102905.13
2023-02-09T17:52:19.977Z,102910.66
2023-02-09T17:54:47.520Z,102909.53
2023-02-09T17:57:16.578Z,102906.72
2023-02-09T17:59:44.127Z,102913.91
2023-02-09T18:02:19.969Z,102914.94
2023-02-09T18:04:49.620Z,102920.31
2023-02-09T18:07:20.727Z,102926.22
2023-02-09T18:09:47.889Z,102926.06
2023-02-09T18:12:21.677Z,102938.69
2023-02-09T18:14:48.939Z,102936.72
2023-02-09T18:17:15.933Z,102930.47
2023-02-09T18:19:45.986Z,102930.81
2023-02-09T18:22:17.224Z,102933.63
2023-02-09T18:24:44.541Z,102933.63
2023-02-09T18:27:18.337Z,102928.13
2023-02-09T18:29:45.397Z,102925.94
2023-02-09T18:32:15.474Z,102916.38
2023-02-09T18:34:42.689Z,102921.75
2023-02-09T18:37:09.441Z,102914.66
2023-02-09T18:39:41.974Z,102927.94
2023-02-09T18:42:13.237Z,102918.13
2023-02-09T18:44:40.170Z,102920.19
2023-02-09T18:47:07.740Z,102918.47
2023-02-09T18:49:34.771Z,102918.47
2023-02-09T18:52:02.537Z,102925.16
2023-02-09T18:54:30.111Z,102926.25
2023-02-09T18:56:57.375Z,102919.31
2023-02-09T18:59:28.694Z,102926.06
2023-02-09T19:01:55.909Z,102925.69
2023-02-09T19:04:25.081Z,102924.91
2023-02-09T19:06:52.551Z,102928.56
2023-02-09T19:09:19.625Z,102925.88
2023-02-09T19:11:46.452Z,102931.28
2023-02-09T19:14:31.890Z,102931.44
2023-02-09T19:16:59.014Z,102904.78
2023-02-09T19:19:26.533Z,102920.97
2023-02-09T19:21:53.517Z,102928.25
2023-02-09T19:24:20.659Z,102929.97
2023-02-09T19:26:50.574Z,102919.56
2023-02-09T19:29:17.830Z,102917.41
2023-02-09T19:31:46.669Z,102909.91
2023-02-09T19:34:16.481Z,102923.16
2023-02-09T19:36:44.549Z,102918.91
2023-02-09T19:39:12.209Z,102921.13
2023-02-09T19:44:14.498Z,102900.53
2023-02-09T19:46:42.869Z,102904.44
2023-02-09T19:49:10.487Z,102899.53
2023-02-09T19:51:38.134Z,102901.09
2023-02-09T19:54:07.578Z,102895.44
2023-02-09T19:56:34.991Z,102902.31
2023-02-09T19:59:03.462Z,102897.75
2023-02-09T20:01:31.764Z,102899.06
2023-02-09T20:03:58.960Z,102899.84
2023-02-09T20:06:25.864Z,102893.88
2023-02-09T20:08:53.042Z,102898.59
2023-02-09T20:11:21.336Z,102898.88
2023-02-09T20:13:52.659Z,102897.91
2023-02-09T20:16:26.458Z,102907.41
2023-02-09T20:18:54.311Z,102906.16
2023-02-09T20:21:26.174Z,102899.81
2023-02-09T20:23:59.133Z,102906.16
2023-02-09T20:26:29.712Z,102901.53
2023-02-09T20:28:57.690Z,102919.13
2023-02-09T20:31:27.563Z,102914.09
2023-02-09T20:33:55.166Z,102922.19
2023-02-09T20:36:24.526Z,102921.94
2023-02-09T20:38:52.616Z,102919.75
2023-02-09T20:41:22.399Z,102917.91
2023-02-09T20:44:07.677Z,102918.91
2023-02-09T20:46:44.087Z,102918.97
2023-02-09T20:49:13.954Z,102926.34
2023-02-09T20:51:41.139Z,102920.56
2023-02-09T20:54:07.963Z,102920.56
2023-02-09T20:56:38.238Z,102920.56
2023-02-09T20:59:06.543Z,102914.31
2023-02-09T21:01:36.533Z,102916.16
2023-02-09T21:04:07.637Z,102914.47
2023-02-09T21:06:37.189Z,102898.78
2023-02-09T21:09:09.462Z,102903.16
2023-02-09T21:11:36.536Z,102909.53
2023-02-09T21:14:03.714Z,102901.56
2023-02-09T21:16:31.447Z,102900.34
2023-02-09T21:18:59.339Z,102913.91
2023-02-09T21:21:27.635Z,102917.22
2023-02-09T21:23:54.779Z,102913.81
2023-02-09T21:26:24.359Z,102921.00
2023-02-09T21:28:56.312Z,102927.59
2023-02-09T21:31:25.772Z,102932.72
2023-02-09T21:33:52.725Z,102933.69
2023-02-09T21:36:19.855Z,102925.03
2023-02-09T21:38:46.772Z,102924.91
2023-02-09T21:41:35.931Z,102929.78
2023-02-09T21:44:03.341Z,102934.88
2023-02-09T21:46:30.381Z,102934.03
2023-02-09T21:48:57.305Z,102935.19
2023-02-09T21:51:24.684Z,102928.97
2023-02-09T21:53:51.898Z,102934.38
2023-02-09T21:56:18.952Z,102939.00
2023-02-09T21:58:45.852Z,102939.63
2023-02-09T22:01:12.920Z,102941.72
2023-02-09T22:03:42.462Z,102947.69
2023-02-09T22:06:09.775Z,102951.13
2023-02-09T22:08:36.832Z,102954.50
2023-02-09T22:11:06.283Z,102953.69
2023-02-09T22:13:33.475Z,102961.75
2023-02-09T22:16:00.841Z,102959.44
2023-02-09T22:18:27.745Z,102961.75
2023-02-09T22:20:55.005Z,102957.34
2023-02-09T22:23:22.141Z,102948.53
2023-02-09T22:25:49.010Z,102957.88
2023-02-09T22:28:16.189Z,102956.16
2023-02-09T22:30:43.299Z,102966.69
2023-02-09T22:33:10.248Z,102983.09
2023-02-09T22:35:40.820Z,102980.28
2023-02-09T22:38:07.646Z,102980.03
2023-02-09T22:40:34.537Z,102981.13
2023-02-09T22:43:01.392Z,102971.09
2023-02-09T22:45:28.457Z,102976.03
2023-02-09T22:47:57.971Z,102984.09
2023-02-09T22:50:24.814Z,102983.56
2023-02-09T22:52:51.860Z,102990.66
2023-02-09T22:55:18.720Z,102980.03
2023-02-09T22:57:45.837Z,102985.03
2023-02-09T23:00:15.561Z,102987.25
2023-02-09T23:02:42.739Z,102987.97
2023-02-09T23:05:09.799Z,102991.41
2023-02-09T23:07:36.682Z,102992.66
2023-02-09T23:10:04.328Z,103001.56
2023-02-09T23:12:31.492Z,103001.91
2023-02-09T23:14:58.528Z,103006.44
2023-02-09T23:17:25.488Z,103017.22
2023-02-09T23:19:52.384Z,103018.06
2023-02-09T23:22:19.704Z,103007.28
2023-02-09T23:24:46.684Z,103008.16
2023-02-09T23:27:13.681Z,102999.94
2023-02-09T23:29:40.690Z,103006.63
2023-02-09T23:32:07.580Z,102994.28
2023-02-09T23:34:34.322Z,103001.09
2023-02-09T23:37:13.163Z,102995.00
2023-02-09T23:39:45.836Z,102988.88
2023-02-09T23:42:12.744Z,102993.69
2023-02-09T23:44:39.741Z,102999.06
2023-02-09T23:47:07.771Z,103004.44
2023-02-09T23:49:34.873Z,103007.50
2023-02-09T23:52:01.739Z,103002.81
2023-02-09T23:54:28.736Z,103002.94
2023-02-09T23:56:55.833Z,103001.25
2023-02-09T23:59:25.420Z,103000.13
